createdAt,value
2023-04-28T00:00:36.711Z,9.22
2023-04-28T00:03:03.885Z,9.29
2023-04-28T00:05:30.880Z,9.16
2023-04-28T00:07:58.063Z,9.08
2023-04-28T00:10:24.810Z,9.20
2023-04-28T00:12:51.559Z,9.14
2023-04-28T00:15:18.377Z,9.03
2023-04-28T00:17:45.506Z,9.08
2023-04-28T00:20:14.973Z,8.81
2023-04-28T00:22:41.761Z,8.74
2023-04-28T00:25:09.429Z,8.77
2023-04-28T00:27:36.652Z,8.65
2023-04-28T00:30:03.930Z,8.59
2023-04-28T00:32:31.082Z,8.54
2023-04-28T00:34:58.195Z,8.42
2023-04-28T00:37:25.162Z,8.34
2023-04-28T00:39:58.604Z,8.26
2023-04-28T00:42:25.811Z,8.23
2023-04-28T00:44:52.786Z,8.20
2023-04-28T00:47:20.650Z,8.25
2023-04-28T00:49:49.653Z,8.24
2023-04-28T00:52:16.672Z,8.18
2023-04-28T00:54:43.689Z,8.27
2023-04-28T00:57:10.939Z,8.30
2023-04-28T00:59:38.445Z,8.41
2023-04-28T01:02:06.732Z,8.34
2023-04-28T01:04:34.286Z,8.22
2023-04-28T01:07:02.497Z,8.21
2023-04-28T01:09:29.595Z,8.21
2023-04-28T01:11:58.442Z,8.19
2023-04-28T01:14:46.918Z,8.19
2023-04-28T01:17:14.179Z,8.25
2023-04-28T01:19:41.379Z,8.27
2023-04-28T01:22:10.826Z,8.22
2023-04-28T01:24:37.945Z,8.24
2023-04-28T01:27:07.065Z,8.13
2023-04-28T01:29:33.865Z,8.25
2023-04-28T01:32:00.976Z,8.24
2023-04-28T01:34:27.831Z,8.19
2023-04-28T01:36:54.869Z,8.19
2023-04-28T01:39:21.859Z,8.23
2023-04-28T01:41:48.746Z,8.26
2023-04-28T01:44:15.765Z,8.18
2023-04-28T01:46:43.189Z,8.21
2023-04-28T01:49:10.154Z,8.28
2023-04-28T01:51:37.233Z,8.28
2023-04-28T01:54:04.976Z,8.21
2023-04-28T01:56:31.858Z,8.20
2023-04-28T01:59:00.111Z,8.18
2023-04-28T02:01:27.556Z,8.23
2023-04-28T02:03:55.900Z,8.09
2023-04-28T02:06:23.846Z,8.10
2023-04-28T02:08:50.967Z,8.06
2023-04-28T02:11:18.134Z,8.09
2023-04-28T02:13:45.015Z,8.13
2023-04-28T02:16:12.070Z,8.19
2023-04-28T02:18:39.060Z,8.05
2023-04-28T02:21:12.882Z,8.10
2023-04-28T02:23:40.541Z,8.06
2023-04-28T02:26:07.699Z,8.13
2023-04-28T02:28:34.527Z,8.05
2023-04-28T02:31:06.351Z,8.09
2023-04-28T02:33:33.493Z,8.11
2023-04-28T02:36:01.496Z,8.10
2023-04-28T02:38:28.415Z,8.03
2023-04-28T02:41:02.906Z,8.04
2023-04-28T02:43:29.699Z,8.06
2023-04-28T02:45:57.571Z,8.05
2023-04-28T02:48:25.961Z,8.01
2023-04-28T02:50:53.985Z,8.00
2023-04-28T02:53:21.803Z,7.97
2023-04-28T02:55:49.664Z,7.94
2023-04-28T02:58:18.232Z,7.93
2023-04-28T03:00:46.495Z,7.93
2023-04-28T03:03:14.054Z,7.90
2023-04-28T03:05:41.524Z,7.88
2023-04-28T03:08:08.440Z,7.90
2023-04-28T03:10:35.702Z,7.89
2023-04-28T03:13:03.753Z,7.74
2023-04-28T03:15:30.923Z,7.75
2023-04-28T03:17:58.173Z,7.77
2023-04-28T03:20:25.296Z,7.60
2023-04-28T03:22:52.355Z,7.64
2023-04-28T03:25:19.434Z,7.67
2023-04-28T03:27:49.308Z,7.58
2023-04-28T03:30:16.453Z,7.61
2023-04-28T03:32:43.642Z,7.52
2023-04-28T03:35:10.982Z,7.46
2023-04-28T03:37:39.415Z,7.41
2023-04-28T03:40:07.488Z,7.41
2023-04-28T03:42:54.524Z,7.40
2023-04-28T03:45:31.617Z,7.43
2023-04-28T03:47:59.008Z,7.42
2023-04-28T03:50:26.782Z,7.54
2023-04-28T03:52:55.319Z,7.59
2023-04-28T03:55:22.755Z,7.65
2023-04-28T03:57:51.276Z,7.80
2023-04-28T04:00:18.753Z,7.80
2023-04-28T04:02:48.222Z,7.99
2023-04-28T04:05:16.258Z,8.07
2023-04-28T04:07:43.625Z,8.05
2023-04-28T04:10:10.798Z,8.05
2023-04-28T04:12:40.784Z,8.10
2023-04-28T04:15:08.563Z,8.17
2023-04-28T04:17:35.728Z,8.28
2023-04-28T04:20:02.675Z,8.35
2023-04-28T04:22:29.888Z,8.42
2023-04-28T04:24:56.740Z,8.53
2023-04-28T04:27:25.910Z,8.53
2023-04-28T04:29:52.786Z,8.50
2023-04-28T04:32:20.417Z,8.46
2023-04-28T04:34:47.611Z,8.40
2023-04-28T04:37:14.889Z,8.45
2023-04-28T04:39:54.745Z,8.55
2023-04-28T04:42:25.456Z,8.62
2023-04-28T04:45:08.490Z,8.68
2023-04-28T04:47:36.166Z,8.79
2023-04-28T04:50:03.050Z,8.79
2023-04-28T04:52:30.223Z,8.86
2023-04-28T04:54:57.439Z,8.95
2023-04-28T04:57:25.153Z,9.07
2023-04-28T05:00:17.219Z,9.15
2023-04-28T05:02:44.664Z,9.22
2023-04-28T05:05:21.058Z,9.29
2023-04-28T05:08:04.080Z,9.26
2023-04-28T05:10:30.984Z,9.25
2023-04-28T05:12:59.204Z,9.27
2023-04-28T05:15:26.438Z,9.41
2023-04-28T05:18:14.041Z,9.46
2023-04-28T05:20:41.318Z,9.61
2023-04-28T05:23:08.493Z,9.70
2023-04-28T05:25:35.647Z,9.79
2023-04-28T05:28:07.506Z,9.92
2023-04-28T05:30:34.961Z,9.98
2023-04-28T05:33:02.077Z,10.07
2023-04-28T05:35:31.325Z,10.16
2023-04-28T05:37:59.336Z,10.23
2023-04-28T05:40:27.565Z,10.26
2023-04-28T05:42:55.456Z,10.43
2023-04-28T05:45:22.577Z,10.47
2023-04-28T05:47:49.771Z,10.52
2023-04-28T05:50:17.167Z,10.76
2023-04-28T05:52:44.204Z,10.93
2023-04-28T05:55:11.626Z,10.97
2023-04-28T05:57:49.227Z,11.14
2023-04-28T06:00:20.166Z,11.20
2023-04-28T06:02:47.258Z,11.17
2023-04-28T06:05:14.612Z,11.39
2023-04-28T06:07:42.900Z,11.53
2023-04-28T06:10:10.315Z,11.64
2023-04-28T06:12:37.750Z,11.65
2023-04-28T06:15:06.309Z,11.70
2023-04-28T06:17:34.307Z,11.79
2023-04-28T06:20:01.480Z,11.87
2023-04-28T06:22:28.515Z,11.91
2023-04-28T06:24:55.805Z,11.91
2023-04-28T06:27:32.924Z,11.79
2023-04-28T06:30:00.065Z,11.97
2023-04-28T06:32:27.157Z,11.97
2023-04-28T06:34:54.581Z,12.14
2023-04-28T06:37:23.558Z,12.08
2023-04-28T06:39:50.754Z,12.06
2023-04-28T06:42:19.149Z,12.06
2023-04-28T06:44:53.426Z,12.24
2023-04-28T06:47:21.083Z,12.33
2023-04-28T06:49:50.196Z,12.40
2023-04-28T06:52:17.295Z,12.35
2023-04-28T06:54:44.303Z,12.55
2023-04-28T06:57:11.260Z,12.57
2023-04-28T06:59:38.341Z,12.38
2023-04-28T07:02:05.601Z,12.58
2023-04-28T07:04:32.625Z,12.80
2023-04-28T07:06:59.669Z,12.69
2023-04-28T07:09:26.589Z,12.77
2023-04-28T07:11:54.257Z,13.07
2023-04-28T07:14:21.493Z,13.17
2023-04-28T07:16:48.777Z,12.88
2023-04-28T07:19:15.882Z,12.91
2023-04-28T07:21:42.862Z,13.14
2023-04-28T07:24:09.868Z,13.20
2023-04-28T07:26:37.095Z,13.38
2023-04-28T07:29:04.299Z,13.35
2023-04-28T07:31:31.968Z,13.18
2023-04-28T07:33:58.897Z,12.89
2023-04-28T07:36:27.533Z,12.70
2023-04-28T07:38:54.534Z,12.73
2023-04-28T07:41:21.964Z,12.81
2023-04-28T07:43:48.942Z,13.00
2023-04-28T07:46:15.836Z,12.86
2023-04-28T07:48:42.824Z,12.66
2023-04-28T07:51:09.768Z,12.78
2023-04-28T07:53:36.909Z,12.53
2023-04-28T07:56:04.024Z,12.42
2023-04-28T07:58:31.768Z,12.80
2023-04-28T08:00:58.694Z,13.10
2023-04-28T08:03:25.870Z,13.04
2023-04-28T08:05:52.967Z,13.20
2023-04-28T08:08:19.780Z,13.27
2023-04-28T08:10:46.804Z,13.46
2023-04-28T08:13:13.881Z,13.34
2023-04-28T08:15:41.066Z,13.26
2023-04-28T08:18:08.825Z,13.50
2023-04-28T08:20:35.736Z,13.79
2023-04-28T08:23:02.780Z,13.87
2023-04-28T08:25:29.668Z,13.71
2023-04-28T08:27:57.581Z,13.53
2023-04-28T08:30:24.906Z,13.63
2023-04-28T08:32:52.250Z,13.40
2023-04-28T08:35:19.493Z,13.80
2023-04-28T08:37:49.709Z,13.86
2023-04-28T08:40:16.665Z,14.08
2023-04-28T08:42:46.161Z,13.41
2023-04-28T08:45:16.647Z,13.21
2023-04-28T08:47:47.911Z,13.50
2023-04-28T08:50:15.414Z,13.49
2023-04-28T08:52:43.697Z,13.68
2023-04-28T08:55:12.984Z,13.93
2023-04-28T08:57:47.253Z,14.01
2023-04-28T09:00:14.837Z,13.75
2023-04-28T09:02:45.317Z,13.49
2023-04-28T09:05:14.141Z,13.56
2023-04-28T09:07:41.782Z,13.56
2023-04-28T09:10:21.994Z,13.91
2023-04-28T09:12:51.851Z,14.09
2023-04-28T09:15:32.652Z,13.67
2023-04-28T09:18:01.303Z,13.94
2023-04-28T09:20:30.092Z,14.08
2023-04-28T09:23:51.263Z,14.16
2023-04-28T09:26:18.316Z,13.76
2023-04-28T09:28:45.458Z,13.95
2023-04-28T09:31:26.127Z,14.02
2023-04-28T09:34:00.317Z,14.30
2023-04-28T09:36:29.696Z,14.51
2023-04-28T09:39:01.053Z,14.86
2023-04-28T09:41:40.864Z,14.69
2023-04-28T09:44:24.543Z,14.72
2023-04-28T09:46:51.570Z,14.27
2023-04-28T09:49:18.742Z,14.56
2023-04-28T09:51:46.422Z,14.72
2023-04-28T09:54:14.041Z,14.58
2023-04-28T09:56:44.341Z,14.72
2023-04-28T09:59:12.694Z,14.91
2023-04-28T10:01:41.471Z,14.46
2023-04-28T10:04:12.080Z,14.31
2023-04-28T10:06:40.503Z,14.59
2023-04-28T10:09:08.577Z,14.59
2023-04-28T10:11:36.042Z,15.00
2023-04-28T10:14:02.983Z,15.31
2023-04-28T10:16:33.294Z,15.32
2023-04-28T10:19:03.476Z,14.86
2023-04-28T10:21:37.670Z,15.03
2023-04-28T10:24:13.645Z,15.21
2023-04-28T10:26:52.780Z,15.36
2023-04-28T10:29:26.966Z,15.38
2023-04-28T10:32:30.328Z,15.46
2023-04-28T10:35:22.652Z,15.47
2023-04-28T10:38:14.990Z,15.24
2023-04-28T10:40:44.702Z,15.50
2023-04-28T10:43:25.338Z,15.68
2023-04-28T10:45:57.514Z,15.69
2023-04-28T10:48:34.143Z,15.30
2023-04-28T10:51:04.163Z,15.28
2023-04-28T10:53:47.193Z,15.20
2023-04-28T10:56:23.769Z,15.34
2023-04-28T10:58:58.307Z,15.13
2023-04-28T11:01:26.131Z,15.46
2023-04-28T11:04:13.884Z,15.64
2023-04-28T11:07:08.514Z,15.89
2023-04-28T11:09:35.254Z,16.04
2023-04-28T11:12:10.898Z,15.33
2023-04-28T11:14:40.852Z,15.71
2023-04-28T11:17:13.456Z,15.71
2023-04-28T11:19:42.279Z,15.66
2023-04-28T11:22:17.552Z,15.30
2023-04-28T11:25:04.846Z,15.30
2023-04-28T11:27:33.745Z,15.84
2023-04-28T11:30:01.735Z,15.86
2023-04-28T11:32:33.704Z,15.81
2023-04-28T11:35:00.991Z,14.98
2023-04-28T11:37:27.874Z,14.77
2023-04-28T11:39:55.168Z,14.77
2023-04-28T11:42:22.073Z,14.82
2023-04-28T11:44:54.013Z,15.00
2023-04-28T11:47:34.540Z,14.88
2023-04-28T11:50:03.164Z,14.76
2023-04-28T11:52:30.505Z,14.90
2023-04-28T11:55:00.501Z,14.80
2023-04-28T11:57:28.179Z,14.84
2023-04-28T12:00:19.448Z,15.01
2023-04-28T12:02:46.640Z,15.12
2023-04-28T12:05:13.797Z,14.88
2023-04-28T12:07:44.706Z,14.80
2023-04-28T12:10:16.110Z,14.84
2023-04-28T12:12:51.063Z,14.95
2023-04-28T12:15:20.766Z,14.82
2023-04-28T12:18:11.889Z,15.11
2023-04-28T12:20:39.644Z,15.11
2023-04-28T12:23:07.919Z,14.90
2023-04-28T12:25:43.881Z,15.02
2023-04-28T12:28:11.273Z,15.12
2023-04-28T12:30:40.480Z,15.09
2023-04-28T12:33:26.114Z,15.17
2023-04-28T12:35:55.512Z,15.15
2023-04-28T12:38:26.688Z,15.05
2023-04-28T12:40:53.998Z,14.83
2023-04-28T12:43:23.454Z,14.83
2023-04-28T12:45:51.221Z,14.68
2023-04-28T12:48:18.761Z,14.64
2023-04-28T12:50:46.183Z,14.48
2023-04-28T12:53:13.226Z,14.83
2023-04-28T12:55:40.641Z,14.69
2023-04-28T12:58:07.556Z,14.53
2023-04-28T13:00:34.584Z,14.69
2023-04-28T13:03:01.973Z,14.71
2023-04-28T13:05:28.892Z,14.53
2023-04-28T13:07:56.474Z,14.73
2023-04-28T13:10:23.798Z,15.05
2023-04-28T13:12:51.080Z,15.34
2023-04-28T13:15:18.216Z,15.42
2023-04-28T13:17:46.685Z,15.49
2023-04-28T13:20:13.884Z,15.24
2023-04-28T13:22:41.877Z,15.20
2023-04-28T13:25:09.390Z,15.22
2023-04-28T13:27:37.775Z,15.27
2023-04-28T13:30:05.629Z,15.29
2023-04-28T13:32:32.765Z,14.89
2023-04-28T13:34:59.671Z,14.85
2023-04-28T13:37:27.303Z,14.89
2023-04-28T13:39:54.286Z,14.76
2023-04-28T13:42:21.339Z,14.46
2023-04-28T13:44:49.332Z,14.51
2023-04-28T13:47:16.615Z,14.47
2023-04-28T13:49:43.729Z,14.92
2023-04-28T13:52:10.897Z,14.93
2023-04-28T13:54:37.702Z,15.26
2023-04-28T13:57:04.733Z,15.18
2023-04-28T13:59:31.602Z,15.12
2023-04-28T14:01:58.745Z,14.96
2023-04-28T14:04:26.030Z,14.97
2023-04-28T14:06:53.937Z,14.92
2023-04-28T14:09:21.616Z,14.95
2023-04-28T14:11:48.535Z,15.13
2023-04-28T14:14:15.724Z,14.94
2023-04-28T14:16:42.711Z,15.06
2023-04-28T14:19:09.835Z,14.59
2023-04-28T14:21:37.064Z,14.76
2023-04-28T14:24:04.148Z,14.78
2023-04-28T14:26:31.428Z,14.65
2023-04-28T14:29:00.296Z,14.64
2023-04-28T14:31:27.180Z,14.64
2023-04-28T14:33:54.578Z,14.89
2023-04-28T14:36:21.801Z,14.83
2023-04-28T14:38:48.881Z,15.03
2023-04-28T14:41:15.939Z,14.85
2023-04-28T14:43:43.491Z,14.87
2023-04-28T14:46:11.732Z,14.84
2023-04-28T14:48:39.110Z,14.99
2023-04-28T14:51:05.951Z,15.19
2023-04-28T14:53:34.641Z,15.06
2023-04-28T14:56:17.338Z,15.20
2023-04-28T14:58:46.145Z,14.82
2023-04-28T15:01:13.476Z,14.75
2023-04-28T15:03:40.785Z,14.72
2023-04-28T15:06:08.189Z,14.55
2023-04-28T15:08:35.722Z,14.51
2023-04-28T15:11:02.748Z,14.41
2023-04-28T15:13:30.474Z,14.40
2023-04-28T15:15:58.008Z,14.38
2023-04-28T15:18:25.185Z,14.53
2023-04-28T15:20:55.791Z,14.36
2023-04-28T15:23:23.244Z,14.52
2023-04-28T15:25:53.637Z,14.57
2023-04-28T15:28:20.846Z,14.52
2023-04-28T15:30:47.945Z,14.61
2023-04-28T15:33:17.563Z,14.52
2023-04-28T15:35:45.617Z,14.40
2023-04-28T15:38:13.318Z,14.42
2023-04-28T15:40:41.450Z,14.44
2023-04-28T15:43:08.260Z,14.40
2023-04-28T15:45:35.873Z,14.39
2023-04-28T15:48:04.979Z,14.51
2023-04-28T15:50:32.373Z,14.55
2023-04-28T15:52:59.285Z,14.70
2023-04-28T15:55:26.838Z,14.70
2023-04-28T15:57:53.705Z,14.59
2023-04-28T16:00:20.777Z,14.77
2023-04-28T16:02:48.035Z,14.91
2023-04-28T16:05:15.266Z,15.01
2023-04-28T16:07:42.162Z,15.40
2023-04-28T16:10:25.942Z,15.77
2023-04-28T16:12:52.891Z,16.26
2023-04-28T16:15:33.765Z,16.57
2023-04-28T16:18:21.095Z,16.49
2023-04-28T16:20:48.247Z,15.76
2023-04-28T16:23:15.504Z,15.46
2023-04-28T16:25:42.857Z,14.88
2023-04-28T16:28:10.202Z,14.70
2023-04-28T16:30:37.071Z,14.53
2023-04-28T16:33:04.579Z,14.45
2023-04-28T16:35:31.816Z,14.41
2023-04-28T16:37:58.542Z,14.33
2023-04-28T16:40:25.677Z,14.44
2023-04-28T16:42:52.473Z,14.47
2023-04-28T16:45:19.793Z,14.43
2023-04-28T16:47:46.872Z,14.31
2023-04-28T16:50:14.908Z,14.23
2023-04-28T16:52:42.358Z,14.00
2023-04-28T16:55:09.931Z,13.85
2023-04-28T16:57:36.802Z,13.67
2023-04-28T17:00:05.107Z,13.56
2023-04-28T17:02:33.475Z,13.41
2023-04-28T17:05:00.577Z,13.27
2023-04-28T17:07:27.822Z,13.09
2023-04-28T17:09:54.934Z,12.84
2023-04-28T17:12:23.329Z,12.59
2023-04-28T17:14:51.159Z,12.43
2023-04-28T17:17:18.300Z,12.32
2023-04-28T17:19:45.536Z,12.25
2023-04-28T17:22:12.737Z,11.99
2023-04-28T17:24:39.711Z,11.89
2023-04-28T17:27:06.676Z,11.73
2023-04-28T17:29:33.627Z,11.58
2023-04-28T17:32:00.531Z,11.48
2023-04-28T17:34:27.492Z,11.35
2023-04-28T17:36:54.467Z,11.18
2023-04-28T17:39:21.321Z,11.14
2023-04-28T17:41:48.128Z,11.06
2023-04-28T17:44:15.089Z,10.97
2023-04-28T17:46:42.216Z,10.84
2023-04-28T17:49:09.396Z,10.80
2023-04-28T17:51:38.051Z,10.62
2023-04-28T17:54:09.358Z,10.53
2023-04-28T17:56:36.991Z,10.45
2023-04-28T17:59:04.284Z,10.35
2023-04-28T18:01:34.414Z,10.26
2023-04-28T18:04:01.216Z,10.17
2023-04-28T18:06:29.191Z,10.04
2023-04-28T18:08:56.420Z,9.86
2023-04-28T18:11:23.737Z,9.71
2023-04-28T18:13:50.526Z,9.66
2023-04-28T18:16:17.379Z,9.66
2023-04-28T18:18:44.326Z,9.47
2023-04-28T18:21:11.466Z,9.49
2023-04-28T18:23:38.454Z,9.37
2023-04-28T18:26:05.817Z,9.36
2023-04-28T18:28:33.922Z,9.36
2023-04-28T18:31:07.090Z,9.20
2023-04-28T18:33:33.995Z,9.22
2023-04-28T18:36:04.909Z,9.09
2023-04-28T18:38:36.570Z,9.11
2023-04-28T18:41:22.420Z,9.00
2023-04-28T18:43:49.357Z,8.96
2023-04-28T18:46:16.516Z,8.95
2023-04-28T18:48:43.686Z,8.92
2023-04-28T18:51:10.928Z,8.79
2023-04-28T18:53:37.749Z,8.69
2023-04-28T18:56:05.043Z,8.66
2023-04-28T18:58:32.210Z,8.59
2023-04-28T19:00:59.096Z,8.50
2023-04-28T19:03:26.413Z,8.48
2023-04-28T19:05:54.137Z,8.32
2023-04-28T19:08:20.925Z,8.29
2023-04-28T19:10:49.179Z,8.22
2023-04-28T19:13:16.327Z,8.21
2023-04-28T19:15:43.065Z,8.08
2023-04-28T19:18:10.205Z,8.07
2023-04-28T19:20:37.011Z,8.02
2023-04-28T19:23:03.865Z,7.95
2023-04-28T19:25:33.563Z,7.79
2023-04-28T19:28:00.975Z,7.80
2023-04-28T19:30:27.885Z,7.85
2023-04-28T19:32:55.088Z,7.82
2023-04-28T19:35:22.059Z,7.81
2023-04-28T19:37:49.919Z,7.68
2023-04-28T19:40:16.953Z,7.57
2023-04-28T19:42:43.763Z,7.51
2023-04-28T19:45:10.964Z,7.52
2023-04-28T19:47:38.054Z,7.34
2023-04-28T19:50:05.392Z,7.40
2023-04-28T19:52:32.464Z,7.32
2023-04-28T19:55:00.897Z,7.29
2023-04-28T19:57:27.866Z,7.32
2023-04-28T19:59:54.719Z,7.36
2023-04-28T20:02:21.879Z,7.29
2023-04-28T20:04:49.708Z,7.24
2023-04-28T20:07:16.860Z,7.30
2023-04-28T20:09:44.935Z,7.25
2023-04-28T20:12:12.102Z,7.22
2023-04-28T20:14:39.052Z,7.15
2023-04-28T20:17:07.434Z,7.16
2023-04-28T20:19:35.105Z,7.11
2023-04-28T20:22:07.710Z,7.14
2023-04-28T20:24:35.673Z,7.16
2023-04-28T20:27:03.679Z,7.10
2023-04-28T20:29:34.814Z,7.08
2023-04-28T20:32:03.435Z,7.04
2023-04-28T20:34:31.622Z,6.91
2023-04-28T20:37:06.563Z,7.01
2023-04-28T20:39:33.844Z,6.98
2023-04-28T20:42:00.842Z,6.95
2023-04-28T20:44:28.002Z,6.89
2023-04-28T20:46:55.478Z,6.87
2023-04-28T20:49:28.523Z,6.91
2023-04-28T20:52:06.013Z,6.82
2023-04-28T20:54:36.645Z,6.88
2023-04-28T20:57:04.977Z,6.84
2023-04-28T20:59:33.028Z,6.84
2023-04-28T21:02:00.444Z,6.84
2023-04-28T21:04:28.313Z,6.76
2023-04-28T21:06:55.773Z,6.74
2023-04-28T21:09:25.333Z,6.73
2023-04-28T21:11:52.853Z,6.61
2023-04-28T21:14:20.301Z,6.67
2023-04-28T21:16:47.413Z,6.67
2023-04-28T21:19:14.526Z,6.58
2023-04-28T21:21:41.914Z,6.52
2023-04-28T21:24:10.214Z,6.45
2023-04-28T21:26:37.166Z,6.32
2023-04-28T21:29:04.228Z,6.25
2023-04-28T21:31:49.719Z,6.11
2023-04-28T21:34:16.602Z,6.03
2023-04-28T21:36:43.516Z,6.00
2023-04-28T21:39:10.698Z,5.82
2023-04-28T21:41:38.365Z,5.80
2023-04-28T21:44:06.096Z,5.90
2023-04-28T21:46:34.308Z,5.86
2023-04-28T21:49:03.965Z,5.72
2023-04-28T21:51:32.083Z,5.73
2023-04-28T21:53:59.001Z,5.74
2023-04-28T21:56:25.878Z,5.72
2023-04-28T21:58:52.824Z,5.63
2023-04-28T22:01:20.112Z,5.53
2023-04-28T22:03:48.044Z,5.52
2023-04-28T22:06:14.903Z,5.40
2023-04-28T22:08:41.799Z,5.36
2023-04-28T22:11:09.717Z,5.28
2023-04-28T22:13:36.656Z,5.31
2023-04-28T22:16:04.399Z,5.19
2023-04-28T22:18:31.470Z,5.21
2023-04-28T22:20:58.357Z,5.18
2023-04-28T22:23:25.597Z,5.17
2023-04-28T22:25:52.671Z,5.10
2023-04-28T22:28:19.664Z,5.07
2023-04-28T22:30:47.609Z,5.06
2023-04-28T22:33:14.630Z,4.97
2023-04-28T22:35:41.622Z,5.01
2023-04-28T22:38:08.413Z,4.91
2023-04-28T22:40:35.636Z,4.88
2023-04-28T22:43:02.811Z,4.94
2023-04-28T22:45:29.721Z,4.85
2023-04-28T22:47:56.998Z,4.79
2023-04-28T22:50:23.883Z,4.84
2023-04-28T22:52:51.593Z,4.89
2023-04-28T22:55:19.635Z,4.93
2023-04-28T22:57:46.470Z,4.87
2023-04-28T23:00:15.803Z,4.84
2023-04-28T23:02:42.970Z,4.85
2023-04-28T23:05:10.157Z,4.85
2023-04-28T23:07:37.058Z,4.86
2023-04-28T23:10:05.164Z,4.83
2023-04-28T23:12:32.201Z,4.85
2023-04-28T23:14:59.343Z,4.83
2023-04-28T23:17:26.422Z,4.75
2023-04-28T23:19:53.379Z,4.77
2023-04-28T23:22:20.556Z,4.77
2023-04-28T23:24:47.497Z,4.75
2023-04-28T23:27:14.376Z,4.66
2023-04-28T23:29:41.306Z,4.77
2023-04-28T23:32:08.091Z,4.92
2023-04-28T23:34:38.123Z,4.98
2023-04-28T23:37:05.126Z,5.01
2023-04-28T23:39:32.212Z,5.06
2023-04-28T23:41:59.102Z,5.08
2023-04-28T23:44:25.971Z,5.02
2023-04-28T23:46:53.742Z,4.78
2023-04-28T23:49:23.140Z,4.66
2023-04-28T23:51:50.201Z,4.67
2023-04-28T23:54:17.148Z,4.63
2023-04-28T23:56:44.358Z,4.55
2023-04-28T23:59:11.254Z,4.54
